Date,TemperatureHighF,TemperatureAvgF,TemperatureLowF,DewpointHighF,DewpointAvgF,DewpointLowF,HumidityHigh,HumidityAvg,HumidityLow,PressureMaxIn,PressureMinIn,WindSpeedMaxMPH,WindSpeedAvgMPH,GustSpeedMaxMPH,PrecipitationSumIn
2013-1-1,24,16,12,16,11,8,86,79,62,30.52,30.40,5,0,8,0.00
2013-1-2,27,16,5,15,9,1,86,74,56,30.61,30.46,4,0,7,0.00
2013-1-3,23,8,-2,9,1,-6,86,73,52,30.64,30.54,4,0,8,0.00
2013-1-4,23,8,-2,9,1,-6,84,74,52,30.56,30.43,3,0,6,0.00
2013-1-5,25,9,-1,12,2,-5,85,74,55,30.69,30.53,6,1,11,0.00
2013-1-6,25,12,3,14,6,-1,85,78,61,30.54,30.21,3,0,7,0.00
2013-1-7,31,18,6,18,11,2,86,75,54,30.27,29.96,3,0,8,0.00
2013-1-8,42,31,20,24,19,15,81,63,40,30.21,29.96,8,2,18,0.00
2013-1-9,42,36,25,29,22,15,66,58,51,30.23,29.78,14,6,28,0.00
2013-1-10,50,37,22,26,23,16,85,59,38,29.80,29.42,14,4,25,0.00
2013-1-11,23,12,8,17,5,-1,87,74,59,30.33,29.55,16,6,28,0.00
2013-1-12,12,8,3,5,3,-1,94,80,69,30.46,30.33,6,1,10,0.00
2013-1-13,10,3,-4,3,-2,-8,85,80,70,30.56,30.45,6,1,10,0.00
2013-1-14,12,5,-7,4,-1,-11,85,75,64,30.60,30.44,7,1,14,0.00
2013-1-15,22,14,7,15,10,3,87,81,68,30.51,30.44,6,2,13,0.01
2013-1-16,28,10,0,16,5,-4,88,79,59,30.72,30.51,3,1,9,0.01
2013-1-17,25,10,0,15,4,-4,87,79,64,30.79,30.52,3,0,8,0.00
2013-1-18,32,17,4,21,11,1,87,76,62,30.52,30.26,4,1,11,0.00
2013-1-19,33,18,6,19,11,2,87,75,53,30.50,30.32,5,1,10,0.01
2013-1-20,32,21,8,20,14,4,90,75,60,30.61,30.42,10,2,20,0.01
2013-1-21,31,16,6,21,11,3,89,81,60,30.51,30.29,5,1,12,0.01
2013-1-22,30,15,2,19,9,-1,88,79,59,30.42,30.31,8,1,12,0.01
2013-1-23,27,18,9,18,13,6,92,81,69,30.40,30.24,3,0,6,0.01
2013-1-24,43,24,12,27,18,9,92,78,52,30.30,30.14,5,1,10,0.01
2013-1-25,43,31,13,27,22,10,91,70,51,30.31,30.10,8,3,15,0.01
2013-1-26,45,33,26,29,25,21,86,71,50,30.10,29.79,7,1,16,0.00
2013-1-27,38,31,26,32,27,23,95,86,75,29.89,29.77,12,3,22,0.00
2013-1-28,34,27,17,27,22,13,93,83,57,29.93,29.88,5,1,10,0.07
2013-1-29,27,16,4,21,11,0,91,81,68,30.33,29.88,12,4,23,0.01
2013-1-30,21,16,7,19,13,3,91,86,78,30.28,30.15,7,1,13,0.00
2013-1-31,28,22,15,23,18,13,91,86,79,30.38,30.27,4,1,9,0.00
2013-2-1,32,21,14,25,18,11,91,86,75,30.49,30.25,7,1,12,0.07
2013-2-2,24,15,8,22,13,3,93,90,85,30.61,30.47,3,1,6,0.01
2013-2-3,25,12,2,19,8,-1,91,86,74,30.54,30.27,3,0,6,0.01
2013-2-4,34,20,7,25,15,4,89,81,65,30.27,30.06,7,1,14,0.02
2013-2-5,34,22,12,24,17,9,90,82,66,30.18,29.97,4,1,8,0.01
2013-2-6,37,24,13,27,18,10,90,81,65,30.27,29.98,6,1,11,0.01
2013-2-7,32,19,7,22,14,4,91,81,61,30.32,30.13,3,1,7,0.01
2013-2-8,36,20,9,22,15,6,90,80,56,30.16,30.02,4,1,7,0.01
2013-2-9,36,26,15,25,20,12,90,78,63,30.06,29.88,8,2,16,0.01
2013-2-10,31,25,14,25,18,5,84,72,54,30.28,29.95,12,4,19,0.00
2013-2-11,24,12,0,14,6,-4,87,78,60,30.35,30.27,8,1,14,0.00
2013-2-12,28,15,3,15,8,-1,95,73,50,30.42,30.24,7,1,13,0.00
2013-2-13,36,28,20,28,18,11,88,67,52,30.24,30.09,9,2,18,0.00
2013-2-14,30,26,24,27,21,18,92,79,61,30.47,30.18,14,4,28,0.00
2013-2-15,30,23,11,24,20,9,92,87,77,30.57,30.43,7,2,15,0.08
2013-2-16,35,20,6,24,14,3,91,79,63,30.44,30.05,5,1,8,0.02
2013-2-17,39,28,14,29,20,11,91,73,46,30.07,29.85,12,4,26,0.01
2013-2-18,34,26,16,22,20,13,89,76,59,30.19,30.07,6,1,10,0.00
2013-2-19,35,19,6,18,12,3,90,75,47,30.16,29.91,4,1,8,0.00
2013-2-20,34,23,16,22,16,11,89,75,59,30.02,29.88,7,2,16,0.00
2013-2-21,29,20,13,21,15,10,89,82,69,30.14,30.02,4,1,8,0.00
2013-2-22,32,20,8,22,13,5,89,76,59,30.21,29.91,8,3,19,0.00
2013-2-23,33,28,23,27,19,12,90,69,54,30.04,29.80,9,2,17,0.02
2013-2-24,38,30,22,23,18,14,82,62,39,30.25,30.05,8,2,16,0.01
2013-2-25,35,26,16,21,15,9,76,63,47,30.18,29.97,8,2,16,0.01
2013-2-26,40,30,18,25,19,13,90,66,33,30.34,30.03,14,4,22,0.00
2013-2-27,34,25,12,20,16,9,90,71,49,30.42,30.34,8,2,16,0.00
2013-2-28,38,26,15,20,16,11,85,67,42,30.46,30.36,5,2,11,0.00
2013-3-1,43,31,19,28,22,15,86,69,46,30.52,30.39,7,2,13,0.00
2013-3-2,47,35,22,32,27,19,89,73,50,30.41,29.99,8,1,15,0.00
2013-3-3,51,38,32,35,27,11,88,67,37,29.98,29.53,26,5,51,0.00
2013-3-4,33,26,19,15,12,9,73,57,44,30.46,29.87,20,11,35,0.00
2013-3-5,37,22,13,20,14,9,87,73,37,30.48,30.19,2,0,7,0.00
2013-3-6,54,34,18,29,22,13,84,64,34,30.19,29.76,7,1,15,0.00
2013-3-7,52,43,34,29,19,12,73,40,21,29.99,29.83,10,1,18,0.00
2013-3-8,51,39,31,29,26,24,79,62,39,29.97,29.81,10,3,17,0.00
2013-3-9,44,38,31,28,21,14,80,52,32,30.26,29.88,13,5,28,0.00
2013-3-10,49,36,22,27,21,16,77,56,33,30.32,30.05,4,1,13,0.00
2013-3-11,47,36,28,30,25,17,77,64,36,30.32,30.01,18,6,33,0.00
2013-3-12,45,33,19,21,18,16,86,57,34,30.39,30.20,9,3,15,0.00
2013-3-13,66,46,30,29,25,20,70,45,23,30.24,30.09,10,3,18,0.00
2013-3-14,68,52,34,32,29,27,77,45,23,30.16,29.91,10,2,18,0.00
2013-3-15,66,52,38,33,28,17,69,43,17,29.92,29.78,13,3,25,0.00
2013-3-16,57,45,36,31,28,25,70,53,30,29.93,29.64,8,1,13,0.00
2013-3-17,43,38,31,32,22,7,91,55,26,29.90,29.40,23,9,42,0.02
2013-3-18,42,32,21,21,10,-6,77,45,13,30.03,29.90,17,4,30,0.02
2013-3-19,41,33,25,22,16,8,77,51,26,30.33,30.03,16,3,28,0.00
2013-3-20,56,35,19,18,15,10,81,49,18,30.32,29.65,5,1,14,0.00
2013-3-21,45,38,32,31,24,14,94,57,30,29.92,29.55,13,4,28,0.06
2013-3-22,38,29,21,23,14,7,75,55,28,30.20,29.90,16,6,28,0.01
2013-3-23,31,25,17,14,10,4,78,54,32,30.38,30.20,9,3,18,0.00
2013-3-24,32,24,15,13,9,5,76,56,34,30.42,30.36,10,4,20,0.00
2013-3-25,43,27,10,11,6,3,79,46,19,30.46,30.19,9,3,18,0.00
2013-3-26,53,35,20,16,11,7,66,41,19,30.20,29.99,5,0,10,0.00
2013-3-27,58,40,20,22,16,11,71,42,22,30.11,29.98,6,1,13,0.00
2013-3-28,63,46,26,26,22,19,75,43,22,30.11,29.97,6,0,13,0.00
2013-3-29,61,45,31,40,27,20,87,52,28,30.14,30.01,11,1,24,0.06
2013-3-30,58,48,38,41,31,-100,90,60,24,30.14,30.07,13,4,27,0.08
2013-3-31,62,44,28,29,24,21,79,49,25,30.09,30.01,17,4,26,0.00
2013-4-1,60,45,29,25,21,13,70,42,17,30.13,30.00,9,2,17,0.00
2013-4-2,64,47,28,26,21,18,67,40,18,30.10,29.91,9,2,15,0.00
2013-4-3,66,50,32,30,24,20,63,38,19,30.03,29.93,11,3,20,0.00
2013-4-4,71,55,37,33,29,26,68,41,20,30.03,29.70,7,2,19,0.00
2013-4-5,65,55,46,36,33,27,60,44,29,29.75,29.52,22,5,39,0.00
2013-4-6,63,49,33,36,28,24,72,47,25,29.83,29.69,10,2,26,0.00
2013-4-7,58,48,38,37,32,27,74,55,32,29.74,29.46,12,2,21,0.01
2013-4-8,44,29,21,37,18,9,82,65,51,30.25,29.56,21,11,40,0.01
2013-4-9,32,23,19,11,7,4,68,51,32,30.53,30.25,17,9,38,0.00
2013-4-10,41,27,11,18,12,6,80,56,37,30.46,30.00,9,2,18,0.00
2013-4-11,56,43,30,32,24,17,66,48,27,30.01,29.81,14,5,26,0.00
2013-4-12,52,43,34,34,25,17,84,52,28,30.02,29.75,10,3,23,0.06
2013-4-13,55,42,34,36,28,20,93,59,37,29.76,29.28,21,6,39,0.15
2013-4-14,42,35,27,27,20,15,72,56,35,29.93,29.59,18,8,31,0.01
2013-4-15,35,28,21,19,14,12,75,57,42,30.20,29.92,14,7,23,0.00
2013-4-16,31,28,23,17,14,12,72,56,47,30.34,30.09,14,9,27,0.00
2013-4-17,34,28,21,19,14,11,73,56,40,30.40,30.33,13,6,23,0.00
2013-4-18,50,34,15,20,16,11,83,51,24,30.39,30.16,13,3,22,0.00
2013-4-19,58,45,27,33,22,17,68,42,23,30.16,29.77,6,1,12,0.00
2013-4-20,59,49,37,35,30,26,69,51,29,29.93,29.78,14,3,26,0.02
2013-4-21,47,39,28,37,30,23,93,72,52,30.12,29.93,17,6,31,0.05
2013-4-22,34,29,26,23,16,10,77,58,37,30.50,30.12,17,10,34,0.01
2013-4-23,42,29,15,19,15,11,88,58,30,30.49,30.27,8,2,16,0.00
2013-4-24,53,40,27,28,22,15,88,53,22,30.35,30.02,11,3,23,0.00
2013-4-25,68,52,39,27,20,11,57,33,11,30.02,29.78,11,4,18,0.00
2013-4-26,70,57,39,29,25,21,56,31,18,30.09,29.89,10,2,15,0.00
2013-4-27,76,59,37,31,25,17,66,32,11,30.06,29.74,16,4,28,0.00
2013-4-28,65,59,54,37,31,25,48,35,25,29.83,29.67,18,4,31,0.00
2013-4-29,65,54,43,39,34,25,82,50,23,29.67,29.37,20,6,36,0.17
2013-4-30,49,41,36,28,17,8,60,40,20,30.18,29.65,14,7,28,0.17
2013-5-1,48,40,33,28,16,8,68,41,22,30.66,30.18,11,5,21,0.00
2013-5-2,58,44,30,29,21,13,84,47,17,30.72,30.35,8,3,18,0.00
2013-5-3,65,50,31,35,24,15,68,39,14,30.35,30.04,13,3,22,0.00
2013-5-4,57,51,45,42,38,34,81,62,48,30.15,30.09,11,4,17,0.00
2013-5-5,65,54,39,43,35,29,92,55,26,30.15,29.96,7,1,12,0.00
2013-5-6,74,57,37,37,31,24,83,43,16,29.98,29.76,6,1,13,0.00
2013-5-7,78,62,40,37,31,22,75,37,14,29.79,29.67,11,3,20,0.00
2013-5-8,73,62,51,37,33,29,55,35,20,29.95,29.80,14,6,24,0.00
2013-5-9,74,60,43,38,34,24,69,41,16,30.04,29.92,11,3,19,0.00
2013-5-10,74,58,43,43,34,-100,71,44,23,30.22,29.99,16,5,27,0.02
2013-5-11,75,60,42,36,30,-100,59,35,18,30.28,29.98,9,2,16,0.02
2013-5-12,87,70,48,40,36,31,65,32,14,30.02,29.76,7,1,15,0.00
2013-5-13,91,76,57,42,36,26,56,27,10,29.84,29.54,17,4,28,0.00
2013-5-14,83,72,60,45,39,31,55,31,20,29.66,29.52,11,4,22,0.00
2013-5-15,77,66,52,38,32,25,41,29,21,29.82,29.61,10,3,21,0.00
2013-5-16,71,58,54,51,28,-100,84,54,31,29.72,29.59,10,2,22,0.04
2013-5-17,67,57,52,51,45,-100,89,76,48,29.75,29.62,10,3,18,0.09
2013-5-18,59,54,49,51,48,44,95,83,58,29.84,29.74,11,3,21,0.13
2013-5-19,54,50,48,48,45,42,88,83,75,29.96,29.81,19,11,38,0.11
2013-5-20,62,54,49,48,41,29,89,64,29,30.06,29.95,13,8,28,0.02
2013-5-21,69,55,39,39,34,26,86,49,22,30.04,29.78,12,3,22,0.00
2013-5-22,75,58,43,49,41,35,89,58,24,29.82,29.63,11,3,23,0.00
2013-5-23,79,60,48,53,46,40,91,65,27,29.74,29.46,19,5,33,0.07
2013-5-24,75,62,50,51,34,18,92,46,13,29.83,29.58,11,2,22,0.15
2013-5-25,82,64,43,43,36,16,79,42,9,29.80,29.59,17,3,28,0.01
2013-5-26,74,64,51,48,42,38,69,48,28,29.79,29.60,8,2,18,0.00
2013-5-27,70,61,53,50,42,30,85,54,23,29.74,29.61,20,3,33,0.02
2013-5-28,72,60,49,47,40,31,75,50,22,29.65,29.47,12,2,21,0.01
2013-5-29,55,53,50,49,47,45,93,80,71,29.59,29.50,13,7,26,0.33
2013-5-30,57,54,51,47,42,35,85,65,48,29.75,29.55,17,8,35,0.01
2013-5-31,60,53,48,43,38,34,81,58,42,30.16,29.74,20,9,38,0.06
2013-6-1,69,58,45,44,40,36,82,55,31,30.21,29.96,9,2,17,0.05
2013-6-2,82,66,49,50,41,32,83,46,17,29.96,29.42,14,2,26,0.00
2013-6-3,68,59,49,51,38,28,81,48,23,29.91,29.45,21,7,48,0.00
2013-6-4,57,50,44,38,36,34,73,58,43,30.21,29.91,12,2,18,0.00
2013-6-5,72,56,38,41,35,27,89,52,20,30.21,29.94,5,0,12,0.00
2013-6-6,80,64,46,49,42,36,79,47,22,29.97,29.83,7,1,14,0.00
2013-6-7,84,68,50,51,46,41,82,50,23,29.85,29.47,9,1,19,0.01
2013-6-8,79,70,61,51,40,28,59,36,16,29.73,29.54,14,5,24,0.01
2013-6-9,91,71,50,48,41,34,77,41,15,29.80,29.47,10,2,22,0.00
2013-6-10,85,72,58,52,47,42,62,42,24,29.63,29.46,20,4,37,0.00
2013-6-11,82,68,56,55,51,47,80,56,33,29.84,29.53,16,3,33,0.04
2013-6-12,79,65,54,56,52,48,88,65,34,29.92,29.75,9,1,16,0.04
2013-6-13,86,67,52,55,50,41,85,59,22,29.80,29.49,25,3,56,0.00
2013-6-14,71,62,49,47,37,19,77,44,15,29.95,29.73,20,5,37,0.00
2013-6-15,80,64,45,42,32,20,67,34,11,29.99,29.78,7,1,16,0.00
2013-6-16,83,66,50,46,41,31,66,43,16,29.92,29.81,11,3,22,0.00
2013-6-17,87,71,55,50,45,35,72,44,16,29.96,29.75,6,2,16,0.00
2013-6-18,90,75,58,49,42,30,66,35,12,29.79,29.51,17,3,29,0.00
2013-6-19,93,76,60,48,38,22,55,30,8,29.54,29.20,22,4,36,0.00
2013-6-20,74,63,53,33,26,20,40,26,13,29.71,29.49,6,1,12,0.00
2013-6-22,72,64,53,52,46,40,69,54,40,29.89,29.73,21,4,36,0.00
2013-6-23,81,64,44,45,39,31,85,47,16,29.89,29.57,7,1,15,0.00
2013-6-24,88,70,52,48,43,35,75,42,15,29.57,29.37,14,2,30,0.00
2013-6-25,84,75,65,48,42,36,49,31,18,29.66,29.42,12,4,26,0.00
2013-6-26,89,78,69,49,46,40,45,33,18,29.83,29.62,11,3,25,0.00
2013-6-27,91,76,58,55,50,44,76,44,21,29.95,29.83,8,2,18,0.00
2013-6-28,91,78,62,55,51,48,71,42,24,30.02,29.88,9,3,21,0.00
2013-6-29,92,78,64,55,52,48,67,43,25,29.96,29.78,15,3,28,0.00
2013-6-30,92,77,60,58,54,48,82,48,26,29.93,29.81,10,2,18,0.00
2013-7-1,90,78,62,57,52,48,75,44,25,29.96,29.87,10,3,26,0.00
2013-7-2,95,79,61,56,50,43,72,40,18,29.94,29.73,8,2,16,0.00
2013-7-3,95,80,62,53,48,41,64,37,17,29.74,29.59,13,3,23,0.00
2013-7-4,94,75,63,63,55,48,89,53,25,29.71,29.52,7,1,15,0.60
2013-7-5,82,71,62,63,59,54,93,68,42,29.66,29.57,14,2,27,0.56
2013-7-6,85,69,58,60,56,48,89,67,28,29.79,29.62,11,1,19,0.28
2013-7-7,90,73,59,59,52,43,80,52,20,29.79,29.63,13,2,30,0.27
2013-7-8,91,74,63,57,52,41,78,51,19,29.79,29.63,12,2,22,0.15
2013-7-9,84,74,61,59,53,47,86,52,29,29.93,29.79,9,2,16,0.15
2013-7-10,94,76,59,58,48,-100,81,45,15,29.91,29.67,7,1,14,0.00
2013-7-11,97,80,63,55,47,40,64,34,14,29.67,29.44,13,2,25,0.00
2013-7-12,87,76,64,62,52,40,84,49,19,29.69,29.59,9,2,20,0.03
2013-7-13,91,74,57,56,48,38,72,44,16,29.88,29.66,17,4,34,0.03
2013-7-14,88,74,58,55,51,44,76,48,22,30.02,29.80,13,2,27,0.00
2013-7-15,97,79,61,62,50,34,88,45,12,29.84,29.60,7,1,15,0.10
2013-7-16,78,69,63,55,51,46,67,54,40,30.02,29.65,16,5,26,0.10
2013-7-17,92,72,60,59,55,52,78,57,26,30.04,29.81,12,2,20,0.00
2013-7-18,92,79,62,61,53,35,83,47,20,29.92,29.76,9,2,18,0.00
2013-7-19,93,78,60,51,44,37,61,33,16,29.89,29.67,9,2,19,0.00
2013-7-20,92,78,63,47,42,-100,47,30,16,29.76,29.59,7,2,16,0.00
2013-7-21,94,77,57,52,42,28,72,36,10,29.65,29.55,10,3,18,0.00
2013-7-22,95,77,56,50,42,30,69,34,11,29.69,29.56,13,2,25,0.00
2013-7-23,91,79,63,49,42,33,46,29,13,29.83,29.68,13,4,22,0.00
2013-7-24,93,78,61,55,49,36,71,39,14,29.87,29.67,8,1,15,0.00
2013-7-25,87,75,62,54,50,44,68,43,23,29.91,29.67,19,5,33,0.00
2013-7-26,89,75,59,54,50,43,74,45,24,30.00,29.80,9,2,18,0.00
2013-7-27,88,76,62,53,48,39,64,40,19,29.82,29.63,8,2,17,0.00
2013-7-28,83,73,64,54,50,46,66,47,28,29.70,29.59,15,2,26,0.00
2013-7-29,82,68,55,55,51,48,84,58,32,29.84,29.68,10,2,19,0.00
2013-7-30,83,69,57,58,52,44,89,58,27,30.05,29.84,14,2,23,0.39
2013-7-31,88,70,55,60,53,38,94,60,18,30.12,29.89,4,0,12,0.39
2013-8-1,90,76,63,59,53,50,82,48,26,29.93,29.52,10,3,22,0.02
2013-8-2,86,70,58,57,53,42,87,60,23,29.83,29.61,12,4,24,0.01
2013-8-3,85,70,59,59,56,53,90,64,34,29.92,29.76,13,2,25,0.00
2013-8-4,87,72,59,59,56,52,86,60,32,29.90,29.72,13,3,26,0.00
2013-8-5,92,74,60,58,52,40,82,52,19,29.83,29.60,12,2,19,0.02
2013-8-6,85,73,59,50,46,41,65,40,21,29.83,29.67,12,3,20,0.02
2013-8-7,89,73,56,50,46,41,73,42,19,29.83,29.67,14,3,24,0.00
2013-8-8,87,73,57,53,48,40,71,45,22,29.84,29.72,8,2,15,0.00
2013-8-9,74,68,59,59,53,49,74,60,42,29.94,29.80,7,2,12,0.00
2013-8-10,88,69,53,56,49,41,88,55,23,29.97,29.83,9,2,21,0.00
2013-8-11,90,71,55,50,46,39,77,45,18,29.94,29.81,13,2,25,0.00
2013-8-12,90,70,52,50,44,36,77,45,16,29.92,29.81,14,1,28,0.00
2013-8-13,86,70,56,51,45,-100,77,44,21,29.95,29.83,16,4,34,0.00
2013-8-14,88,70,53,51,44,-100,81,45,19,29.96,29.78,3,0,14,0.00
2013-8-15,93,68,54,51,32,-100,76,39,15,29.90,29.75,6,1,9,0.00
2013-8-16,97,73,55,51,40,-100,73,40,11,29.85,29.66,6,1,14,0.00
2013-8-17,96,78,54,50,39,-100,64,31,10,29.81,29.67,6,1,17,0.00
2013-8-18,90,76,60,54,49,46,68,42,23,29.78,29.69,6,1,17,0.00
2013-8-19,96,72,56,52,38,-100,76,42,14,29.83,29.63,5,0,10,0.00
2013-8-20,95,76,59,51,42,-100,64,36,14,29.75,29.62,6,1,11,0.00
2013-8-21,88,75,60,51,46,38,53,36,21,29.86,29.67,7,2,13,0.00
2013-8-22,90,77,64,59,51,46,63,44,23,29.90,29.70,16,2,27,0.00
2013-8-23,91,76,61,57,52,44,82,49,20,29.75,29.56,8,1,21,0.01
2013-8-24,88,73,66,58,50,-100,69,48,23,29.76,29.63,9,0,21,0.01
2013-8-25,90,74,61,53,48,39,73,44,17,29.86,29.70,5,1,10,0.00
2013-8-26,92,79,67,55,48,39,58,36,16,29.79,29.69,13,2,28,0.00
2013-8-27,87,71,61,55,53,50,77,56,29,29.83,29.74,1,0,13,0.00
2013-8-28,94,85,71,55,50,46,51,31,22,29.78,29.65,9,2,21,0.00
2013-8-29,92,72,59,61,53,47,86,54,22,29.91,29.77,6,1,13,0.05
2013-8-30,93,72,56,61,54,43,91,60,18,29.92,29.74,5,0,13,0.02
2013-8-31,85,72,60,52,43,-100,70,39,23,29.89,29.75,10,3,23,0.01
2013-9-1,91,70,51,53,44,40,72,45,18,29.94,29.75,3,0,9,0.00
2013-9-2,82,68,52,61,49,42,78,53,28,29.83,29.72,14,1,20,0.04
2013-9-3,89,76,64,63,58,51,90,59,27,29.85,29.75,7,0,11,0.04
2013-9-4,93,76,62,63,57,52,88,56,26,29.94,29.80,12,2,25,0.00
2013-9-5,94,76,59,62,56,51,85,55,23,29.91,29.67,9,1,22,0.00
2013-9-6,90,75,62,61,57,52,82,57,28,29.85,29.71,15,2,26,0.02
2013-9-7,90,74,61,61,54,-100,90,57,23,29.86,29.69,11,1,18,0.07
2013-9-8,79,68,61,60,56,49,82,68,39,29.81,29.66,8,1,18,0.01
2013-9-9,77,67,55,55,48,41,84,55,28,29.89,29.72,10,2,17,0.00
2013-9-10,82,66,52,52,47,43,82,56,27,29.99,29.88,3,0,8,0.00
2013-9-11,83,67,50,51,46,41,84,52,23,30.07,29.96,10,3,20,0.00
2013-9-12,77,67,55,53,49,46,73,53,36,30.11,29.94,8,2,17,0.00
2013-9-13,74,63,55,60,55,50,94,77,51,29.93,29.71,9,1,17,0.06
2013-9-14,63,59,57,60,56,-100,96,91,86,29.95,29.75,7,1,12,0.71
2013-9-15,73,64,56,59,57,52,94,79,58,30.05,29.92,5,1,12,0.06
2013-9-16,81,68,56,56,53,50,82,61,35,29.92,29.67,6,2,14,0.01
2013-9-17,80,65,56,57,53,48,88,68,34,29.74,29.48,17,2,28,0.17
2013-9-18,58,55,53,53,50,41,93,84,61,29.89,29.52,10,2,16,0.17
2013-9-19,65,54,43,44,40,36,90,62,36,30.09,29.89,10,1,16,0.02
2013-9-20,73,55,40,44,39,32,92,61,22,30.08,29.76,6,1,16,0.00
2013-9-21,85,62,41,43,35,-100,86,48,12,29.76,29.46,5,1,13,0.00
2013-9-22,73,62,52,51,44,40,76,54,33,29.46,29.34,13,1,24,0.00
2013-9-23,72,63,56,44,37,29,59,41,21,29.79,29.46,13,2,24,0.00
2013-9-24,77,60,45,41,36,29,76,45,18,29.85,29.49,16,2,34,0.00
2013-9-25,58,50,46,48,44,40,94,82,51,29.64,29.48,7,2,19,0.73
2013-9-26,52,47,41,46,39,35,95,77,52,29.95,29.64,12,5,24,0.03
2013-9-27,44,41,37,39,37,34,92,86,73,30.04,29.90,9,1,16,0.23
2013-9-28,63,47,36,42,35,-100,92,67,37,30.06,29.89,12,5,26,0.01
2013-9-29,67,59,49,43,38,34,67,48,31,29.90,29.58,16,8,35,0.00
2013-9-30,73,59,51,44,40,37,63,50,32,29.72,29.44,17,5,28,0.00
2013-10-1,67,59,53,38,36,33,54,42,34,29.82,29.78,6,1,12,0.00
2013-10-2,59,51,39,42,35,30,83,55,37,30.00,29.82,9,2,18,0.02
2013-10-3,47,41,36,44,38,30,93,86,73,30.19,29.78,13,4,27,0.27
2013-10-4,40,37,31,31,28,25,87,71,59,30.47,30.20,13,5,26,0.02
2013-10-5,49,37,25,34,29,22,92,74,52,30.45,30.35,6,1,11,0.01
2013-10-6,62,45,29,39,33,27,93,68,36,30.39,30.14,7,1,14,0.01
2013-10-7,68,48,33,44,37,31,94,71,34,30.14,29.72,6,1,10,0.00
2013-10-8,62,50,40,41,38,34,97,67,41,29.87,29.64,7,2,13,0.00
2013-10-9,53,43,35,43,36,32,95,77,56,30.03,29.88,4,1,7,0.01
2013-10-10,51,42,33,45,39,32,97,89,70,29.92,29.67,10,1,22,0.05
2013-10-11,53,45,35,42,34,25,89,67,34,30.06,29.70,15,6,31,0.09
2013-10-12,56,40,28,37,29,-100,94,71,33,30.15,30.05,6,1,13,0.01
2013-10-13,47,40,37,39,35,33,91,83,68,30.14,30.06,7,3,16,0.16
2013-10-14,41,38,36,36,33,28,91,83,59,30.43,30.10,9,5,22,0.08
2013-10-15,47,39,32,34,29,24,90,70,42,30.43,30.24,5,1,10,0.01
2013-10-16,51,38,26,35,28,24,92,70,37,30.24,30.09,7,1,14,0.00
2013-10-17,42,38,32,35,32,29,91,81,59,30.24,30.15,12,2,21,0.04
2013-10-18,46,38,31,34,30,27,89,72,50,30.29,30.12,12,3,18,0.03
2013-10-19,55,40,27,39,29,-100,91,69,39,30.12,29.93,8,1,19,0.00
2013-10-20,54,46,39,40,35,30,89,67,39,30.08,29.98,10,3,21,0.03
2013-10-21,57,44,35,39,36,33,92,73,45,30.15,30.07,7,0,11,0.02
2013-10-22,64,45,30,40,35,28,94,71,34,30.22,30.06,6,1,12,0.01
2013-10-23,62,45,31,40,35,29,93,72,37,30.22,30.13,5,0,12,0.01
2013-10-24,59,45,34,40,36,32,92,74,45,30.27,30.14,7,1,11,0.00
2013-10-25,66,51,30,40,36,28,93,60,33,30.27,30.16,6,1,12,0.00
2013-10-26,64,45,30,39,32,-100,92,66,34,30.29,30.02,8,1,14,0.00
2013-10-27,64,46,30,38,31,26,90,61,25,30.02,29.77,12,3,24,0.00
2013-10-28,40,31,25,31,26,-100,91,85,71,30.19,29.94,12,4,22,0.02
2013-10-29,35,29,24,29,25,21,91,84,73,30.19,30.02,7,1,12,0.04
2013-10-30,47,35,29,36,31,27,93,86,62,30.03,29.88,5,1,11,0.01
2013-10-31,50,36,26,39,30,25,96,81,52,29.98,29.83,12,2,22,0.03
2013-11-1,55,45,37,29,26,21,68,49,28,30.17,30.00,13,4,25,0.02
2013-11-2,57,42,27,30,26,-100,86,57,33,30.13,29.59,12,2,23,0.00
2013-11-3,47,40,31,33,25,14,80,58,30,29.93,29.57,15,3,24,0.02
2013-11-4,42,32,23,26,20,13,86,64,30,30.17,29.93,6,1,14,0.02
2013-11-5,40,30,21,27,20,14,94,68,39,30.27,30.15,8,3,21,0.00
2013-11-6,48,36,27,25,19,15,78,51,33,30.38,30.20,9,2,16,0.00
2013-11-7,46,36,25,32,25,20,86,65,42,30.39,29.78,9,1,14,0.00
2013-11-8,54,45,32,33,26,18,87,50,25,29.98,29.70,18,2,33,0.00
2013-11-9,50,41,29,27,21,-100,79,48,34,30.20,29.99,9,1,16,0.00
2013-11-10,45,34,28,31,27,23,86,75,56,30.29,30.17,9,0,18,0.00
2013-11-11,36,31,26,28,26,23,90,81,69,30.67,30.30,10,2,19,0.00
2013-11-12,55,36,21,34,27,19,92,73,43,30.69,30.36,5,0,11,0.00
2013-11-13,48,38,29,35,30,25,87,74,55,30.36,30.08,6,0,10,0.00
2013-11-14,48,37,29,32,28,22,86,70,42,30.16,29.76,4,1,9,0.00
2013-11-15,51,36,21,30,22,16,91,60,24,29.76,29.44,11,2,18,0.00
2013-11-16,49,38,34,30,20,-100,85,49,30,29.52,29.26,12,4,28,0.00
2013-11-17,46,34,20,27,18,12,88,56,26,30.06,29.52,11,3,21,0.00
2013-11-18,50,38,29,22,18,15,63,46,29,30.11,29.85,9,2,16,0.00
2013-11-19,57,42,29,29,26,20,74,53,33,29.85,29.64,7,1,16,0.00
2013-11-20,40,25,13,28,17,5,88,74,63,30.48,29.71,17,6,36,0.00
2013-11-21,21,14,7,10,7,1,84,74,61,30.86,30.48,4,1,7,0.00
2013-11-22,23,9,-2,12,3,-6,86,78,60,30.98,30.84,3,0,6,0.00
2013-11-23,29,12,0,13,4,-100,85,73,45,30.98,30.58,3,1,6,0.00
2013-11-24,31,16,3,19,10,-1,86,76,58,30.58,30.34,4,0,8,0.00
2013-11-25,42,24,14,23,17,11,87,75,46,30.57,30.45,3,0,7,0.00
2013-11-26,44,28,16,25,20,13,88,75,46,30.58,30.33,4,0,9,0.00
2013-11-27,48,30,19,28,22,16,90,76,45,30.32,30.17,3,0,6,0.00
2013-11-28,38,27,16,28,22,13,90,81,65,30.30,30.19,3,0,7,0.00
2013-12-2,57,42,27,35,30,22,93,66,34,29.76,29.39,15,5,26,0.07
2013-12-3,24,14,8,20,7,-1,87,73,64,30.30,29.61,19,5,34,0.01
2013-12-4,9,5,1,1,-2,-5,83,71,59,30.52,30.30,11,3,23,0.00
2013-12-5,5,-2,-10,-2,-8,-14,83,77,66,30.66,30.52,3,0,8,0.00
2013-12-6,0,-7,-11,-9,-13,-17,82,74,66,30.83,30.66,5,2,12,0.00
2013-12-7,-4,-9,-12,-12,-17,-100,77,71,66,30.81,30.51,8,2,15,0.00
2013-12-8,0,-6,-14,-5,-12,-19,82,77,67,30.64,30.46,5,0,11,0.00
2013-12-9,17,4,-9,6,-4,-14,82,70,58,30.63,30.45,11,3,20,0.00
2013-12-10,29,17,9,19,9,1,92,73,48,30.53,30.30,6,1,11,0.00
2013-12-11,22,10,0,12,5,-3,88,79,62,30.61,30.52,6,0,11,0.00
2013-12-12,30,14,6,17,8,2,86,78,56,30.60,30.24,3,0,7,0.00
2013-12-13,34,21,11,23,16,7,87,81,63,30.43,30.20,2,0,7,0.00
2013-12-14,37,26,10,24,17,-100,90,73,53,30.45,30.30,7,2,16,0.01
2013-12-15,42,34,27,25,22,19,73,62,44,30.29,30.12,9,4,18,0.01
2013-12-16,44,36,20,27,24,16,83,62,48,30.32,30.14,6,2,13,0.00
2013-12-17,44,35,20,26,23,17,89,64,46,30.36,29.98,9,2,17,0.00
2013-12-18,50,36,27,28,24,20,87,64,39,29.97,29.72,7,1,12,0.00
2013-12-19,28,14,0,26,8,-4,92,76,65,30.26,29.75,14,5,27,0.00
2013-12-20,19,10,-2,11,4,-6,87,76,62,30.25,29.87,7,1,13,0.00
2013-12-21,25,20,16,20,14,-100,89,78,68,30.16,29.83,3,0,10,0.00
2013-12-22,23,18,8,21,14,5,92,86,80,30.50,30.13,9,2,18,0.00
2013-12-23,25,16,3,19,11,0,97,83,74,30.53,30.16,6,0,13,0.02
2013-12-27,39,23,14,25,17,11,92,79,58,30.46,30.13,2,0,7,0.00
2013-12-28,36,18,10,29,11,-100,90,77,65,30.57,30.08,18,4,32,0.00
2013-12-29,25,18,4,18,12,1,87,77,67,30.58,30.21,5,1,11,0.00
2013-12-30,35,28,15,24,20,12,87,74,61,30.41,30.13,7,1,15,0.00
2013-12-31,37,31,26,32,24,20,87,73,62,30.12,30.00,11,2,18,0.00
2014-1-1,35,29,15,28,24,12,93,81,67,30.42,30.12,10,2,16,0.00
2014-1-2,30,19,8,21,14,5,91,82,66,30.45,30.15,8,1,13,0.00